TimePDT,TemperatureF,Dew PointF,Humidity,Sea Level PressureIn,VisibilityMPH,Wind Direction,Wind SpeedMPH,Gust SpeedMPH,PrecipitationIn,Events,Conditions,WindDirDegrees,DateUTC
12:53 AM,64.0,57.0,78,29.99,10.0,Calm,Calm,-,N/A,,Overcast,0,2013-08-27 07:53:00
1:53 AM,64.9,55.9,73,29.99,10.0,Calm,Calm,-,N/A,,Overcast,0,2013-08-27 08:53:00
2:53 AM,63.0,57.0,81,29.97,10.0,Calm,Calm,-,N/A,,Overcast,0,2013-08-27 09:53:00
3:53 AM,64.0,57.0,78,29.97,10.0,Calm,Calm,-,0.00,,Overcast,0,2013-08-27 10:53:00
4:53 AM,63.0,57.0,81,29.97,10.0,Calm,Calm,-,N/A,,Overcast,0,2013-08-27 11:53:00
5:53 AM,63.0,57.0,81,29.96,10.0,SE,4.6,-,N/A,,Overcast,130,2013-08-27 12:53:00
6:53 AM,63.0,57.9,84,29.97,10.0,South,3.5,-,0.01,,Mostly Cloudy,180,2013-08-27 13:53:00
7:53 AM,64.9,57.9,78,29.97,10.0,Calm,Calm,-,N/A,,Mostly Cloudy,0,2013-08-27 14:53:00
8:40 AM,68.0,57.2,68,29.96,10.0,SE,3.5,-,N/A,,Mostly Cloudy,140,2013-08-27 15:40:00
8:53 AM,69.1,57.9,68,29.97,10.0,SSE,6.9,-,N/A,,Mostly Cloudy,160,2013-08-27 15:53:00
9:22 AM,69.8,57.2,64,29.95,10.0,SSE,4.6,-,N/A,,Mostly Cloudy,150,2013-08-27 16:22:00
9:53 AM,71.1,57.0,61,29.96,10.0,Calm,Calm,-,N/A,,Mostly Cloudy,0,2013-08-27 16:53:00
10:53 AM,72.0,57.0,59,29.96,10.0,Variable,3.5,-,N/A,,Mostly Cloudy,0,2013-08-27 17:53:00
11:53 AM,75.0,57.0,53,29.94,10.0,Variable,3.5,-,N/A,,Mostly Cloudy,0,2013-08-27 18:53:00
12:53 PM,75.9,57.0,52,29.91,10.0,West,5.8,-,N/A,,Mostly Cloudy,270,2013-08-27 19:53:00
1:53 PM,77.0,57.0,50,29.89,10.0,West,5.8,-,N/A,,Mostly Cloudy,270,2013-08-27 20:53:00
2:53 PM,80.1,55.9,43,29.87,10.0,Variable,3.5,-,N/A,,Mostly Cloudy,0,2013-08-27 21:53:00
3:53 PM,78.1,57.0,48,29.86,10.0,WNW,5.8,-,N/A,,Mostly Cloudy,300,2013-08-27 22:53:00
4:53 PM,79.0,55.9,45,29.85,10.0,NNW,4.6,-,N/A,,Mostly Cloudy,330,2013-08-27 23:53:00
5:53 PM,78.1,55.9,46,29.83,10.0,West,3.5,-,N/A,,Mostly Cloudy,280,2013-08-28 00:53:00
6:53 PM,77.0,55.9,48,29.83,10.0,Calm,Calm,-,0.00,Rain,Light Rain,0,2013-08-28 01:53:00
7:53 PM,73.9,57.0,55,29.83,10.0,West,4.6,-,0.00,,Mostly Cloudy,280,2013-08-28 02:53:00
8:53 PM,66.9,57.9,73,29.85,10.0,NW,3.5,-,0.04,Rain,Light Rain,320,2013-08-28 03:53:00
9:53 PM,64.0,53.1,67,29.87,10.0,NW,8.1,-,N/A,,Mostly Cloudy,320,2013-08-28 04:53:00
10:53 PM,66.0,54.0,65,29.87,10.0,North,6.9,-,N/A,,Mostly Cloudy,10,2013-08-28 05:53:00
11:53 PM,66.0,54.0,65,29.88,10.0,Calm,Calm,-,N/A,,Mostly Cloudy,0,2013-08-28 06:53:00